Time;durP1;ratioP1;P1;durP2;ratioP2;P2;SDS_P1;SDS_P2;PMS_P1;PMS_P2;Temp;Humidity;BMP_temperature;BMP_pressure;BME280_temperature;BME280_humidity;BME280_pressure;Samples;Min_cycle;Max_cycle;Signal;HPM_P1;HPM_P2
2022/07/14 00:01:53;;;;;;;2.13;1.00;;;20.90;97.90;;;;;;5052556;28;20201;-60
2022/07/14 00:04:20;;;;;;;1.10;1.00;;;21.00;98.10;;;;;;5052291;28;20617;-60
2022/07/14 00:06:48;;;;;;;2.20;0.95;;;20.80;98.80;;;;;;5052258;28;20658;-60
2022/07/14 00:09:15;;;;;;;3.85;1.27;;;20.90;99.10;;;;;;5052406;28;20201;-60
2022/07/14 00:11:41;;;;;;;1.52;1.13;;;20.90;98.90;;;;;;5052483;28;20288;-60
2022/07/14 00:14:08;;;;;;;1.27;0.80;;;21.00;98.80;;;;;;5052793;28;20232;-60
2022/07/14 00:16:35;;;;;;;2.90;1.00;;;21.00;98.50;;;;;;5052752;28;20604;-60
2022/07/14 00:19:02;;;;;;;4.18;1.23;;;21.00;98.90;;;;;;5052793;28;20205;-60
2022/07/14 00:21:29;;;;;;;3.08;1.30;;;20.90;99.60;;;;;;5052889;28;20300;-60
2022/07/14 00:23:57;;;;;;;3.55;1.35;;;20.90;99.90;;;;;;5052535;28;20221;-60
2022/07/14 00:26:24;;;;;;;1.83;1.27;;;20.90;99.90;;;;;;5052819;28;20206;-60
2022/07/14 00:28:50;;;;;;;2.38;1.02;;;20.90;99.90;;;;;;5052917;28;20205;-60
2022/07/14 00:31:17;;;;;;;2.78;1.10;;;20.90;99.90;;;;;;5052506;28;20216;-60
2022/07/14 00:33:44;;;;;;;2.33;1.00;;;21.00;99.80;;;;;;5052537;28;20225;-59
2022/07/14 00:36:11;;;;;;;1.92;1.17;;;21.00;99.80;;;;;;5052072;28;20316;-60
2022/07/14 00:38:38;;;;;;;2.30;1.27;;;21.00;99.50;;;;;;5052163;28;20209;-60
2022/07/14 00:41:06;;;;;;;3.35;1.50;;;21.00;99.30;;;;;;5051832;28;20217;-60
2022/07/14 00:43:33;;;;;;;3.10;1.63;;;21.00;99.30;;;;;;5052389;28;20233;-60
2022/07/14 00:46:00;;;;;;;3.03;1.23;;;21.00;99.10;;;;;;5052319;28;20240;-60
2022/07/14 00:48:27;;;;;;;1.17;0.90;;;21.00;99.10;;;;;;5052573;28;20212;-60
2022/07/14 00:50:54;;;;;;;4.50;1.13;;;20.90;99.10;;;;;;5052296;28;20209;-60
2022/07/14 00:53:21;;;;;;;1.15;0.90;;;20.90;99.40;;;;;;5052053;28;20209;-60
2022/07/14 00:55:48;;;;;;;3.47;1.08;;;20.80;99.90;;;;;;5052078;28;20213;-60
2022/07/14 00:58:16;;;;;;;1.83;1.08;;;20.70;99.90;;;;;;5052419;28;20214;-60
2022/07/14 01:00:44;;;;;;;1.92;0.70;;;20.60;99.90;;;;;;5051869;28;20232;-60
2022/07/14 01:03:11;;;;;;;2.83;1.27;;;20.50;99.90;;;;;;5052221;28;20255;-61
2022/07/14 01:05:38;;;;;;;2.50;1.05;;;20.40;99.90;;;;;;5052216;28;20218;-60
2022/07/14 01:08:05;;;;;;;2.55;1.00;;;20.20;99.90;;;;;;5054062;28;20205;-60
2022/07/14 01:10:32;;;;;;;1.85;0.82;;;20.20;99.90;;;;;;5056161;28;20489;-60
2022/07/14 01:13:01;;;;;;;1.65;1.00;;;20.20;99.90;;;;;;5056548;28;20221;-60
2022/07/14 01:15:29;;;;;;;1.80;0.90;;;20.00;99.90;;;;;;5055832;28;20611;-60
2022/07/14 01:17:56;;;;;;;1.88;0.95;;;19.90;99.90;;;;;;5056360;28;20226;-60
2022/07/14 01:20:23;;;;;;;1.10;1.00;;;19.80;99.90;;;;;;5056191;28;20209;-60
2022/07/14 01:22:52;;;;;;;1.30;0.80;;;19.60;99.90;;;;;;5056078;28;20300;-60
2022/07/14 01:25:20;;;;;;;1.38;1.00;;;19.40;99.90;;;;;;5056037;28;20218;-60
2022/07/14 01:27:47;;;;;;;1.10;1.00;;;19.50;99.90;;;;;;5055895;28;20212;-60
2022/07/14 01:30:14;;;;;;;1.85;1.00;;;19.40;99.90;;;;;;5056157;28;20206;-60
2022/07/14 01:32:41;;;;;;;1.42;1.00;;;19.40;99.90;;;;;;5055849;28;20255;-60
2022/07/14 01:35:08;;;;;;;1.80;1.00;;;19.30;99.90;;;;;;5055538;28;20736;-60
2022/07/14 01:37:36;;;;;;;2.25;1.00;;;19.30;99.90;;;;;;5055700;28;20229;-60
2022/07/14 01:40:05;;;;;;;2.50;1.10;;;19.20;99.90;;;;;;5056450;28;20650;-60
2022/07/14 01:42:32;;;;;;;3.08;0.90;;;19.10;99.90;;;;;;5056486;28;20210;-60
2022/07/14 01:44:59;;;;;;;1.25;1.05;;;19.10;99.90;;;;;;5055631;28;20240;-60
2022/07/14 01:47:26;;;;;;;2.17;0.90;;;19.00;99.90;;;;;;5055207;28;20209;-60
2022/07/14 01:49:53;;;;;;;3.05;1.00;;;19.00;99.90;;;;;;5054756;28;20205;-60
2022/07/14 01:52:19;;;;;;;4.45;3.75;;;18.90;99.90;;;;;;5055563;28;20572;-60
2022/07/14 01:54:46;;;;;;;2.45;2.20;;;18.90;99.90;;;;;;5055249;28;20225;-60
2022/07/14 01:57:14;;;;;;;2.60;1.30;;;18.90;99.90;;;;;;5055265;28;20260;-60
2022/07/14 01:59:41;;;;;;;3.88;1.13;;;18.90;99.90;;;;;;5054720;28;20627;-60
2022/07/14 02:02:08;;;;;;;1.98;1.10;;;18.90;99.90;;;;;;5054937;28;20231;-60
2022/07/14 02:04:35;;;;;;;0.98;0.77;;;18.80;99.90;;;;;;5054954;28;20241;-60
2022/07/14 02:07:01;;;;;;;2.17;1.00;;;18.80;99.90;;;;;;5055326;28;20205;-59
2022/07/14 02:12:12;;;;;;;4.18;1.13;;;18.70;99.90;;;;;;5053885;28;20233;-60
2022/07/14 02:14:41;;;;;;;3.22;1.05;;;18.70;99.90;;;;;;5054663;28;20225;-60
2022/07/14 02:17:08;;;;;;;2.63;1.23;;;18.70;99.90;;;;;;5054946;28;20221;-60
2022/07/14 02:19:35;;;;;;;2.85;1.02;;;18.70;99.90;;;;;;5053300;28;20205;-60
2022/07/14 02:22:01;;;;;;;3.22;1.20;;;18.60;99.90;;;;;;5054553;28;20205;-60
2022/07/14 02:24:28;;;;;;;4.32;1.08;;;18.60;99.90;;;;;;5054449;28;20226;-60
2022/07/14 02:26:55;;;;;;;1.83;1.02;;;18.50;99.90;;;;;;5054460;28;20624;-60
2022/07/14 02:29:22;;;;;;;2.72;1.05;;;18.50;99.90;;;;;;5053803;28;20216;-60
2022/07/14 02:31:50;;;;;;;2.45;1.00;;;18.50;99.90;;;;;;5054577;28;20229;-60
2022/07/14 02:34:17;;;;;;;1.50;0.93;;;18.50;99.90;;;;;;5054564;28;20221;-60
2022/07/14 02:36:44;;;;;;;2.08;1.02;;;18.40;99.90;;;;;;5054260;28;20225;-60
2022/07/14 02:39:12;;;;;;;2.75;0.95;;;18.40;99.90;;;;;;5054138;28;20704;-59
2022/07/14 02:41:40;;;;;;;3.08;1.00;;;18.30;99.90;;;;;;5054084;28;20583;-60
2022/07/14 02:44:08;;;;;;;1.30;1.10;;;18.30;99.90;;;;;;5054017;28;20284;-60
2022/07/14 02:46:35;;;;;;;3.38;1.00;;;18.30;99.90;;;;;;5054388;28;20206;-60
2022/07/14 02:49:03;;;;;;;1.77;1.17;;;18.30;99.90;;;;;;5054249;28;20212;-60
2022/07/14 02:51:30;;;;;;;2.63;1.15;;;18.30;99.90;;;;;;5053949;28;20217;-60
2022/07/14 02:53:57;;;;;;;2.75;1.00;;;18.30;99.90;;;;;;5053779;28;20226;-60
2022/07/14 02:56:23;;;;;;;1.33;1.10;;;18.30;99.90;;;;;;5053903;28;20205;-60
2022/07/14 02:58:50;;;;;;;3.35;1.50;;;18.20;99.90;;;;;;5054944;28;20209;-60
2022/07/14 03:01:17;;;;;;;1.83;1.10;;;18.20;99.90;;;;;;5054499;28;20696;-60
2022/07/14 03:03:44;;;;;;;2.42;1.20;;;18.20;99.90;;;;;;5054486;28;20229;-60
2022/07/14 03:06:14;;;;;;;4.80;1.20;;;18.10;99.90;;;;;;5053716;28;20243;-60
2022/07/14 03:08:41;;;;;;;1.10;1.00;;;18.00;99.90;;;;;;5053567;28;20695;-60
2022/07/14 03:11:08;;;;;;;1.48;0.90;;;18.10;99.90;;;;;;5053588;28;20243;-60
2022/07/14 03:13:36;;;;;;;2.58;1.10;;;18.00;99.90;;;;;;5053785;28;20713;-59
2022/07/14 03:16:04;;;;;;;3.33;1.00;;;18.00;99.90;;;;;;5053863;28;20217;-60
2022/07/14 03:18:31;;;;;;;1.55;1.25;;;18.00;99.90;;;;;;5054047;28;20315;-60
2022/07/14 03:20:58;;;;;;;1.40;1.10;;;17.90;99.90;;;;;;5053790;28;20205;-59
2022/07/14 03:23:26;;;;;;;2.25;1.17;;;17.80;99.90;;;;;;5053676;28;20263;-60
2022/07/14 03:25:52;;;;;;;3.10;1.13;;;17.70;99.90;;;;;;5054392;28;20212;-60
2022/07/14 03:28:19;;;;;;;1.40;1.30;;;17.60;99.90;;;;;;5054107;28;20204;-60
2022/07/14 03:30:46;;;;;;;1.95;0.93;;;17.60;99.90;;;;;;5053291;28;20270;-60
2022/07/14 03:33:13;;;;;;;1.65;1.15;;;17.60;99.90;;;;;;5053737;28;20205;-60
2022/07/14 03:35:40;;;;;;;2.50;1.08;;;17.60;99.90;;;;;;5053773;28;20217;-60
2022/07/14 03:38:07;;;;;;;1.27;1.17;;;17.50;99.90;;;;;;5053061;28;20257;-60
2022/07/14 03:40:35;;;;;;;2.20;1.20;;;17.50;99.90;;;;;;5053726;28;20216;-60
2022/07/14 03:43:02;;;;;;;1.40;1.27;;;17.60;99.90;;;;;;5053421;28;20681;-60
2022/07/14 03:45:29;;;;;;;1.65;1.20;;;17.60;99.90;;;;;;5053776;28;20676;-60
2022/07/14 03:47:56;;;;;;;2.13;1.30;;;17.60;99.90;;;;;;5053305;28;20376;-60
2022/07/14 03:50:23;;;;;;;1.30;1.20;;;17.60;99.90;;;;;;5052895;28;20210;-60
2022/07/14 03:52:49;;;;;;;3.42;1.92;;;17.60;99.90;;;;;;5052913;28;20217;-60
2022/07/14 03:55:16;;;;;;;5.85;2.10;;;17.50;99.90;;;;;;5053267;28;20225;-60
2022/07/14 03:57:44;;;;;;;3.63;1.90;;;17.50;99.90;;;;;;5053249;28;20229;-67
2022/07/14 04:00:12;;;;;;;3.25;2.50;;;17.50;99.90;;;;;;5052997;28;20212;-60
2022/07/14 04:02:38;;;;;;;2.63;1.75;;;17.60;99.90;;;;;;5053209;28;20209;-60
2022/07/14 04:05:06;;;;;;;2.80;1.48;;;17.80;99.90;;;;;;5053406;28;20229;-60
2022/07/14 04:07:32;;;;;;;2.15;1.50;;;18.00;99.90;;;;;;5053701;28;20201;-60
2022/07/14 04:09:59;;;;;;;3.20;2.30;;;18.20;99.90;;;;;;5053713;28;20209;-60
2022/07/14 04:12:26;;;;;;;4.53;1.80;;;18.40;99.90;;;;;;5054221;28;20216;-60
2022/07/14 04:14:54;;;;;;;3.78;1.50;;;18.60;99.90;;;;;;5052981;28;20229;-60
2022/07/14 04:17:21;;;;;;;1.88;1.58;;;18.80;99.90;;;;;;5053377;28;20279;-60
2022/07/14 04:19:47;;;;;;;4.53;1.58;;;18.90;99.90;;;;;;5053207;28;20212;-60
2022/07/14 04:22:14;;;;;;;3.70;1.65;;;18.90;99.90;;;;;;5052910;28;20210;-60
2022/07/14 04:24:42;;;;;;;1.67;1.20;;;18.90;99.90;;;;;;5053391;28;20237;-60
2022/07/14 04:27:08;;;;;;;2.75;1.20;;;19.00;99.90;;;;;;5052840;28;20259;-60
2022/07/14 04:29:35;;;;;;;2.58;1.20;;;19.00;99.90;;;;;;5052992;28;20201;-60
2022/07/14 04:32:04;;;;;;;4.80;1.50;;;19.00;99.90;;;;;;5052899;28;20570;-60
2022/07/14 04:34:31;;;;;;;1.85;1.15;;;19.00;99.90;;;;;;5053014;28;20367;-60
2022/07/14 04:36:57;;;;;;;2.38;1.33;;;19.00;99.90;;;;;;5053100;28;20283;-60
2022/07/14 04:39:24;;;;;;;1.88;1.63;;;19.00;99.90;;;;;;5054087;28;20212;-60
2022/07/14 04:41:51;;;;;;;1.15;1.00;;;19.00;99.90;;;;;;5054204;28;20220;-60
2022/07/14 04:44:18;;;;;;;2.13;1.35;;;19.00;99.90;;;;;;5058280;28;20241;-60
2022/07/14 04:46:45;;;;;;;1.38;1.23;;;19.00;99.90;;;;;;5059807;28;20585;-60
2022/07/14 04:52:12;;;;;;;1.55;1.25;;;19.00;99.90;;;;;;4975193;28;20683;-60
2022/07/14 04:54:39;;;;;;;2.85;1.40;;;19.10;99.90;;;;;;4975369;28;20235;-61
2022/07/14 04:57:06;;;;;;;3.65;1.45;;;19.20;99.90;;;;;;5009944;28;20213;-60
2022/07/14 04:59:33;;;;;;;3.53;1.83;;;19.40;99.90;;;;;;5055936;28;20209;-61
2022/07/14 05:02:01;;;;;;;4.30;1.60;;;19.50;99.90;;;;;;5056472;28;20241;-60
2022/07/14 05:04:30;;;;;;;3.00;1.30;;;19.60;99.90;;;;;;5055866;28;20666;-60
2022/07/14 05:06:57;;;;;;;1.83;1.33;;;19.80;99.90;;;;;;5055763;28;20205;-60
2022/07/14 05:09:25;;;;;;;1.90;1.40;;;19.90;99.90;;;;;;5055329;28;20233;-60
2022/07/14 05:11:53;;;;;;;3.58;1.20;;;20.10;99.90;;;;;;5055259;28;20670;-60
2022/07/14 05:14:20;;;;;;;2.13;1.30;;;20.30;99.90;;;;;;5055557;28;20312;-60
2022/07/14 05:16:48;;;;;;;5.32;1.58;;;20.40;99.90;;;;;;5055429;28;20209;-60
2022/07/14 05:19:15;;;;;;;2.42;1.33;;;20.80;99.90;;;;;;5055274;28;20233;-61
2022/07/14 05:21:44;;;;;;;5.00;1.63;;;21.20;99.90;;;;;;5055477;28;20400;-60
2022/07/14 05:24:11;;;;;;;1.98;1.40;;;22.60;99.90;;;;;;5056672;28;20225;-60
2022/07/14 05:26:38;;;;;;;1.27;1.00;;;24.60;99.90;;;;;;5055745;28;20205;-60
2022/07/14 05:29:05;;;;;;;3.20;1.30;;;26.50;97.90;;;;;;5055094;28;20691;-60
2022/07/14 05:31:32;;;;;;;2.97;1.80;;;27.80;93.30;;;;;;5055276;28;20210;-60
2022/07/14 05:33:59;;;;;;;1.35;1.25;;;28.80;90.70;;;;;;5055155;28;20229;-60
2022/07/14 05:36:26;;;;;;;1.10;0.90;;;29.10;86.10;;;;;;5055095;28;20206;-60
2022/07/14 05:38:54;;;;;;;5.38;1.20;;;28.80;85.90;;;;;;5054914;28;20244;-60
2022/07/14 05:41:21;;;;;;;2.70;1.15;;;28.40;85.30;;;;;;5054643;28;20209;-60
2022/07/14 05:43:48;;;;;;;2.15;1.20;;;28.60;85.00;;;;;;5054971;28;20248;-60
2022/07/14 05:46:15;;;;;;;2.45;1.77;;;29.60;81.60;;;;;;5054913;28;20216;-60
2022/07/14 05:48:43;;;;;;;2.42;1.20;;;30.60;76.80;;;;;;5054658;28;20212;-61
2022/07/14 05:51:13;;;;;;;2.95;1.67;;;30.70;75.40;;;;;;5054659;28;20213;-62
2022/07/14 05:53:40;;;;;;;2.58;1.17;;;31.00;74.80;;;;;;5054949;28;20339;-61
2022/07/14 05:56:10;;;;;;;2.35;1.00;;;32.30;71.10;;;;;;5054628;28;20209;-61
2022/07/14 05:58:38;;;;;;;2.72;1.20;;;33.90;66.20;;;;;;5054779;28;20348;-62
2022/07/14 06:01:05;;;;;;;2.67;1.17;;;35.10;61.30;;;;;;5054356;28;20205;-61
2022/07/14 06:03:32;;;;;;;4.75;1.20;;;35.60;58.80;;;;;;5054229;28;20674;-61
2022/07/14 06:06:00;;;;;;;3.75;1.23;;;36.00;57.20;;;;;;5054278;28;20206;-61
2022/07/14 06:08:26;;;;;;;2.88;0.90;;;36.80;55.30;;;;;;5054910;28;20251;-62
2022/07/14 06:10:55;;;;;;;17.90;16.05;;;37.90;53.40;;;;;;5054522;28;20259;-62
2022/07/14 06:13:24;;;;;;;1.17;0.90;;;38.70;50.90;;;;;;5054345;28;20213;-62
2022/07/14 06:15:50;;;;;;;2.53;1.38;;;39.50;49.40;;;;;;5054265;28;20213;-62
2022/07/14 06:18:17;;;;;;;2.22;1.00;;;40.50;47.20;;;;;;5054194;28;20228;-61
2022/07/14 06:20:44;;;;;;;2.60;0.80;;;41.30;45.50;;;;;;5054323;28;20206;-61
2022/07/14 06:23:13;;;;;;;2.08;1.00;;;41.60;44.80;;;;;;5054978;28;20212;-61
2022/07/14 06:25:40;;;;;;;3.78;1.13;;;41.10;44.70;;;;;;5055042;28;20212;-61
2022/07/14 06:28:07;;;;;;;2.38;1.08;;;40.40;45.40;;;;;;5054630;28;20205;-61
2022/07/14 06:30:36;;;;;;;2.47;1.02;;;39.80;46.40;;;;;;5054273;28;20692;-63
2022/07/14 06:33:03;;;;;;;5.15;1.50;;;39.40;46.60;;;;;;5054643;28;20206;-61
2022/07/14 06:35:30;;;;;;;2.75;1.20;;;38.80;47.40;;;;;;5055196;28;20226;-61
2022/07/14 06:37:57;;;;;;;2.80;1.02;;;38.20;47.90;;;;;;5054177;28;20564;-59
2022/07/14 06:40:24;;;;;;;8.00;1.40;;;37.50;48.90;;;;;;5053688;28;20708;-59
2022/07/14 06:42:51;;;;;;;3.88;1.55;;;37.30;49.30;;;;;;5054531;28;20225;-58
2022/07/14 06:45:18;;;;;;;5.47;1.35;;;37.80;49.10;;;;;;5053817;28;20327;-58
2022/07/14 06:47:46;;;;;;;9.52;1.65;;;38.10;48.70;;;;;;5054131;28;20666;-58
2022/07/14 06:50:13;;;;;;;7.53;1.70;;;39.00;47.60;;;;;;5053770;28;20205;-58
2022/07/14 06:52:40;;;;;;;2.78;1.23;;;40.10;46.00;;;;;;5053666;28;20212;-58
2022/07/14 06:55:08;;;;;;;4.70;1.40;;;41.30;44.30;;;;;;5053333;28;20221;-58
2022/07/14 06:57:35;;;;;;;7.07;1.27;;;41.30;43.50;;;;;;5053670;28;20212;-58
2022/07/14 07:00:03;;;;;;;4.32;1.15;;;41.30;44.10;;;;;;5053276;28;20228;-58
2022/07/14 07:02:30;;;;;;;2.55;1.30;;;41.10;43.50;;;;;;5053384;28;20206;-58
2022/07/14 07:07:43;;;;;;;3.90;1.40;;;40.50;45.10;;;;;;5053287;28;20223;-58
2022/07/14 07:10:10;;;;;;;4.63;1.25;;;40.30;44.80;;;;;;5053005;28;20231;-58
2022/07/14 07:12:37;;;;;;;4.00;1.25;;;40.00;45.40;;;;;;5052736;28;20613;-59
2022/07/14 07:15:05;;;;;;;3.47;1.25;;;40.90;44.30;;;;;;5053048;28;20260;-59
2022/07/14 07:17:32;;;;;;;2.25;1.52;;;42.50;42.90;;;;;;5053188;28;20634;-58
2022/07/14 07:20:01;;;;;;;3.70;1.13;;;43.50;41.30;;;;;;5052501;28;20233;-58
2022/07/14 07:22:28;;;;;;;3.08;1.20;;;44.10;40.40;;;;;;5052426;28;20205;-59
2022/07/14 07:24:54;;;;;;;8.30;1.30;;;45.00;39.80;;;;;;5052067;28;20227;-58
2022/07/14 07:27:21;;;;;;;4.70;1.38;;;46.10;38.10;;;;;;5052497;28;20674;-59
2022/07/14 07:29:48;;;;;;;3.20;1.10;;;46.70;37.50;;;;;;5052740;28;20201;-59
2022/07/14 07:32:15;;;;;;;4.28;1.10;;;46.80;37.20;;;;;;5052942;28;20205;-58
2022/07/14 07:34:41;;;;;;;2.90;0.90;;;45.80;36.90;;;;;;5053186;28;20236;-58
2022/07/14 07:37:10;;;;;;;1.92;1.00;;;44.70;37.30;;;;;;5052799;28;20208;-58
2022/07/14 07:39:37;;;;;;;1.58;0.70;;;43.90;38.30;;;;;;5053336;28;20232;-58
2022/07/14 07:42:04;;;;;;;3.75;0.90;;;43.10;36.10;;;;;;5052796;28;20209;-58
2022/07/14 07:44:30;;;;;;;2.28;0.65;;;42.40;36.50;;;;;;5052626;28;20291;-58
2022/07/14 07:46:58;;;;;;;2.67;1.30;;;42.10;36.10;;;;;;5052633;28;20685;-58
2022/07/14 07:49:25;;;;;;;1.63;0.90;;;42.60;35.60;;;;;;5052718;28;20201;-58
2022/07/14 07:51:57;;;;;;;2.83;0.80;;;43.60;34.90;;;;;;5052649;28;20221;-58
2022/07/14 07:54:26;;;;;;;1.10;0.70;;;44.70;34.20;;;;;;5052790;28;20229;-58
2022/07/14 07:56:53;;;;;;;3.78;0.90;;;45.90;33.00;;;;;;5053040;28;20271;-59
2022/07/14 07:59:20;;;;;;;2.47;1.00;;;46.50;32.50;;;;;;5052779;28;20445;-59
2022/07/14 08:01:47;;;;;;;5.18;0.90;;;47.20;32.20;;;;;;5052405;28;20247;-59
2022/07/14 08:04:15;;;;;;;0.90;0.65;;;47.20;32.10;;;;;;5052337;28;20279;-58
2022/07/14 08:06:42;;;;;;;1.98;0.65;;;46.30;32.00;;;;;;5052186;28;20288;-58
2022/07/14 08:09:11;;;;;;;2.92;0.82;;;45.60;32.60;;;;;;5052150;28;20201;-59
2022/07/14 08:11:39;;;;;;;7.60;1.17;;;45.20;32.30;;;;;;5052207;28;20304;-58
2022/07/14 08:14:47;;;;;;;5.28;1.08;;;45.20;31.60;;;;;;5052100;28;20246;-58
2022/07/14 08:16:53;;;;;;;1.92;1.10;;;45.30;32.20;;;;;;5051964;28;20219;-58
2022/07/14 08:19:20;;;;;;;2.85;1.38;;;44.90;32.70;;;;;;5056055;28;20232;-58
2022/07/14 08:21:47;;;;;;;3.67;0.90;;;44.30;32.80;;;;;;5056189;28;20343;-58
2022/07/14 08:24:13;;;;;;;2.40;0.90;;;43.90;33.70;;;;;;5056212;28;20235;-58
2022/07/14 08:26:41;;;;;;;6.68;1.40;;;43.80;33.40;;;;;;5056141;28;20270;-57
2022/07/14 08:29:09;;;;;;;8.18;1.08;;;43.30;34.70;;;;;;5056288;28;20255;-57
2022/07/14 08:31:35;;;;;;;4.32;1.20;;;43.40;34.40;;;;;;5055933;28;20205;-57
2022/07/14 08:34:03;;;;;;;2.88;1.30;;;43.60;34.10;;;;;;5055999;28;20235;-57
2022/07/14 08:36:30;;;;;;;11.02;1.70;;;43.80;34.00;;;;;;5056307;28;20205;-57
2022/07/14 08:38:57;;;;;;;8.27;1.30;;;44.50;32.40;;;;;;5056160;28;20228;-57
2022/07/14 08:41:23;;;;;;;5.25;1.63;;;44.50;31.30;;;;;;5055624;28;20594;-57
2022/07/14 08:43:52;;;;;;;5.80;1.48;;;44.50;32.90;;;;;;5055607;28;20262;-57
2022/07/14 08:46:19;;;;;;;6.10;1.30;;;45.10;32.00;;;;;;5056035;28;20201;-57
2022/07/14 08:48:47;;;;;;;4.93;1.10;;;45.40;31.70;;;;;;5055779;28;20227;-58
2022/07/14 08:51:16;;;;;;;5.05;1.05;;;45.50;30.30;;;;;;5055328;28;20718;-57
2022/07/14 08:53:44;;;;;;;3.83;1.42;;;44.90;31.20;;;;;;5055862;28;20316;-57
2022/07/14 08:56:11;;;;;;;3.15;1.60;;;44.00;32.50;;;;;;5055404;28;20211;-57
2022/07/14 08:58:38;;;;;;;6.03;1.70;;;42.90;33.50;;;;;;5055430;28;20233;-58
2022/07/14 09:01:06;;;;;;;3.05;1.40;;;41.70;35.20;;;;;;5054928;28;20205;-57
2022/07/14 09:03:33;;;;;;;1.45;1.10;;;40.50;36.70;;;;;;5055535;28;20317;-57
2022/07/14 09:06:00;;;;;;;2.97;1.40;;;39.40;36.40;;;;;;5055451;28;20206;-56
2022/07/14 09:08:27;;;;;;;3.33;1.30;;;38.30;37.30;;;;;;5055293;28;20263;-56
2022/07/14 09:10:53;;;;;;;5.75;1.67;;;37.30;39.00;;;;;;5055137;28;20209;-56
2022/07/14 09:13:24;;;;;;;3.80;1.30;;;36.50;40.20;;;;;;5054879;28;20209;-57
2022/07/14 09:16:11;;;;;;;6.72;1.70;;;35.90;40.80;;;;;;5055074;28;20202;-57
2022/07/14 09:18:41;;;;;;;3.72;1.75;;;35.30;41.30;;;;;;5054806;28;20240;-57
2022/07/14 09:21:20;;;;;;;3.38;1.48;;;34.60;42.60;;;;;;5055139;28;20264;-56
2022/07/14 09:23:47;;;;;;;3.17;1.73;;;34.00;44.10;;;;;;5055031;28;20317;-57
2022/07/14 09:26:16;;;;;;;5.10;2.47;;;33.80;45.20;;;;;;5055016;28;20209;-56
2022/07/14 09:28:45;;;;;;;2.75;1.55;;;33.60;45.70;;;;;;5055011;28;20202;-57
2022/07/14 09:31:22;;;;;;;3.30;1.65;;;33.60;45.70;;;;;;5055544;28;20255;-56
2022/07/14 09:33:51;;;;;;;4.68;1.30;;;33.60;46.20;;;;;;5054997;28;20256;-57
2022/07/14 09:36:26;;;;;;;4.28;1.42;;;33.70;45.60;;;;;;5054763;28;20206;-58
2022/07/14 09:38:52;;;;;;;3.45;1.40;;;33.90;45.90;;;;;;5055561;28;20221;-55
2022/07/14 09:41:20;;;;;;;1.98;1.42;;;34.10;44.90;;;;;;5054959;28;20209;-58
2022/07/14 09:44:09;;;;;;;6.47;1.98;;;34.10;44.80;;;;;;5055672;28;20237;-56
2022/07/14 09:46:52;;;;;;;7.53;1.70;;;34.00;46.20;;;;;;5055359;28;20208;-57
2022/07/14 09:49:21;;;;;;;4.25;1.70;;;34.00;45.90;;;;;;5056077;28;20240;-57
2022/07/14 09:51:53;;;;;;;4.95;1.75;;;33.90;45.00;;;;;;5054924;28;20296;-57
2022/07/14 09:54:43;;;;;;;7.85;1.63;;;33.80;45.10;;;;;;5054621;28;20264;-57
2022/07/14 09:57:24;;;;;;;3.97;1.40;;;33.70;45.20;;;;;;5054770;28;20559;-56
2022/07/14 09:59:53;;;;;;;3.80;1.52;;;33.60;44.60;;;;;;5054407;28;20261;-57
2022/07/14 10:02:22;;;;;;;4.10;1.70;;;33.60;43.50;;;;;;5054762;28;20228;-57
2022/07/14 10:04:51;;;;;;;6.88;1.98;;;33.60;44.30;;;;;;5054496;28;20291;-57
2022/07/14 10:07:19;;;;;;;4.50;1.85;;;33.70;45.00;;;;;;5054369;28;20202;-57
2022/07/14 10:09:50;;;;;;;4.28;2.13;;;33.70;45.30;;;;;;5054324;28;20323;-58
2022/07/14 10:12:17;;;;;;;6.20;2.03;;;33.70;46.40;;;;;;5053996;28;20300;-56
2022/07/14 10:14:44;;;;;;;6.30;2.15;;;33.60;46.40;;;;;;5054338;28;20283;-56
2022/07/14 10:17:12;;;;;;;5.85;1.95;;;33.50;47.20;;;;;;5053953;28;20297;-56
2022/07/14 10:19:39;;;;;;;4.63;1.63;;;33.40;46.70;;;;;;5053771;28;20217;-56
2022/07/14 10:22:09;;;;;;;3.90;1.48;;;33.30;46.60;;;;;;5053381;28;20201;-57
2022/07/14 10:24:37;;;;;;;5.00;1.80;;;33.30;46.80;;;;;;5054336;28;20240;-57
2022/07/14 10:27:06;;;;;;;4.13;1.90;;;33.50;48.10;;;;;;5054569;28;20206;-57
2022/07/14 10:29:33;;;;;;;4.35;1.50;;;33.70;46.90;;;;;;5054348;28;20205;-57
2022/07/14 10:32:12;;;;;;;4.38;1.50;;;34.00;46.00;;;;;;5054204;28;20271;-56
2022/07/14 10:34:46;;;;;;;5.13;1.88;;;34.20;44.50;;;;;;5054060;28;20712;-56
2022/07/14 10:37:23;;;;;;;4.63;1.90;;;34.20;45.30;;;;;;5054746;28;20217;-57
2022/07/14 10:39:58;;;;;;;1.83;1.27;;;34.20;45.10;;;;;;5053206;28;20226;-56
2022/07/14 10:42:32;;;;;;;3.67;2.05;;;34.10;44.80;;;;;;5053700;28;20208;-56
2022/07/14 10:45:02;;;;;;;2.65;1.40;;;33.90;46.20;;;;;;5053550;28;20241;-56
2022/07/14 10:47:44;;;;;;;7.13;1.70;;;33.90;46.40;;;;;;5053729;28;20662;-56
2022/07/14 10:50:13;;;;;;;5.55;1.73;;;33.70;46.80;;;;;;5053542;28;20197;-56
2022/07/14 10:52:50;;;;;;;6.32;1.65;;;33.80;46.40;;;;;;5053533;28;20297;-56
2022/07/14 10:55:18;;;;;;;3.75;1.60;;;33.80;45.60;;;;;;5053946;28;20267;-56
2022/07/14 10:58:23;;;;;;;2.78;1.60;;;33.70;45.60;;;;;;5053537;28;20216;-56
2022/07/14 11:00:58;;;;;;;6.72;1.40;;;33.70;45.80;;;;;;5053121;28;20228;-56
2022/07/14 11:03:27;;;;;;;4.50;1.52;;;33.80;43.20;;;;;;5053473;28;20401;-56
2022/07/14 11:06:13;;;;;;;3.80;1.73;;;33.80;43.50;;;;;;5052781;28;20582;-56
2022/07/14 11:08:42;;;;;;;8.00;1.50;;;33.90;43.00;;;;;;5053162;28;20209;-56
2022/07/14 11:11:17;;;;;;;1.70;1.50;;;34.00;43.40;;;;;;5052851;28;20255;-57
2022/07/14 11:14:07;;;;;;;3.60;1.38;;;34.20;41.80;;;;;;5053091;28;20232;-57
2022/07/14 11:17:00;;;;;;;4.55;1.60;;;34.40;41.80;;;;;;5053293;28;20236;-57
2022/07/14 11:19:34;;;;;;;2.75;1.27;;;34.50;41.80;;;;;;5052863;28;20603;-57
2022/07/14 11:22:16;;;;;;;3.80;1.50;;;34.60;41.20;;;;;;5052777;28;20212;-57
2022/07/14 11:24:49;;;;;;;5.85;1.27;;;34.70;39.60;;;;;;5052712;28;20295;-57
2022/07/14 11:27:36;;;;;;;6.40;2.15;;;34.60;40.40;;;;;;5053307;28;20679;-57
2022/07/14 11:30:33;;;;;;;4.97;1.55;;;34.60;40.50;;;;;;5052882;28;20288;-57
2022/07/14 11:33:02;;;;;;;5.35;1.52;;;34.70;41.20;;;;;;4952767;29;20216;-57
2022/07/14 11:38:25;;;;;;;4.97;1.65;;;34.80;41.90;;;;;;5039332;28;20205;-57
2022/07/14 11:40:54;;;;;;;5.65;1.85;;;34.70;41.40;;;;;;5052316;28;20316;-58
2022/07/14 11:43:41;;;;;;;2.78;1.60;;;34.60;41.90;;;;;;5052484;28;20244;-56
2022/07/14 11:46:10;;;;;;;5.57;1.40;;;34.50;41.90;;;;;;5052706;28;20209;-57
2022/07/14 11:48:40;;;;;;;11.73;1.70;;;34.50;41.20;;;;;;5052860;28;20241;-56
2022/07/14 11:51:09;;;;;;;9.45;1.77;;;34.30;41.70;;;;;;5052386;28;20252;-56
2022/07/14 11:53:37;;;;;;;7.68;1.55;;;34.20;41.70;;;;;;5052507;28;20235;-58
2022/07/14 11:56:07;;;;;;;5.80;1.33;;;34.20;42.10;;;;;;5052313;28;20252;-57
2022/07/14 11:58:35;;;;;;;4.63;1.95;;;34.10;43.10;;;;;;5053069;28;20627;-57
2022/07/14 12:01:03;;;;;;;17.10;2.35;;;34.20;42.60;;;;;;5052352;28;20481;-56
2022/07/14 12:03:30;;;;;;;9.00;2.35;;;34.30;42.60;;;;;;5052443;28;20201;-56
2022/07/14 12:05:59;;;;;;;6.45;2.03;;;34.30;43.40;;;;;;5052588;28;20210;-57
2022/07/14 12:08:27;;;;;;;15.80;4.72;;;34.30;42.30;;;;;;5052907;28;20259;-56
2022/07/14 12:10:54;;;;;;;9.05;1.98;;;34.30;42.70;;;;;;5052874;28;20205;-56
2022/07/14 12:13:22;;;;;;;8.13;1.75;;;34.20;43.80;;;;;;5052758;28;20300;-56
2022/07/14 12:15:49;;;;;;;6.25;1.77;;;34.30;44.10;;;;;;5052817;28;20692;-55
2022/07/14 12:18:16;;;;;;;9.88;1.83;;;34.30;43.20;;;;;;5052714;28;20587;-56
2022/07/14 12:20:44;;;;;;;3.22;1.63;;;34.50;42.90;;;;;;5051684;28;20225;-56
2022/07/14 12:23:11;;;;;;;4.63;1.60;;;34.60;43.40;;;;;;5052163;28;20296;-56
2022/07/14 12:25:40;;;;;;;8.07;1.45;;;34.80;43.10;;;;;;5052206;28;20233;-57
2022/07/14 12:28:09;;;;;;;5.80;1.50;;;35.10;42.30;;;;;;5052749;28;20296;-56
2022/07/14 12:30:45;;;;;;;13.63;1.90;;;35.00;42.20;;;;;;5052147;28;20293;-56
2022/07/14 12:33:12;;;;;;;9.88;1.95;;;35.00;42.70;;;;;;5052034;28;20262;-56
2022/07/14 12:35:40;;;;;;;6.50;2.30;;;35.10;43.10;;;;;;5052148;28;20209;-57
2022/07/14 12:38:08;;;;;;;9.10;2.15;;;35.30;42.40;;;;;;5052123;28;20212;-56
2022/07/14 12:40:35;;;;;;;5.35;1.88;;;35.50;42.30;;;;;;5051766;28;20225;-56
2022/07/14 12:43:03;;;;;;;16.88;2.05;;;35.80;42.20;;;;;;5052361;28;20206;-57
2022/07/14 12:45:30;;;;;;;4.63;1.70;;;36.10;40.70;;;;;;5051636;28;20585;-57
2022/07/14 12:48:01;;;;;;;11.13;1.80;;;36.20;40.60;;;;;;5051562;28;20217;-57
2022/07/14 12:50:29;;;;;;;12.07;1.90;;;36.40;40.80;;;;;;5052109;28;20213;-58
2022/07/14 12:52:58;;;;;;;9.48;1.70;;;36.60;40.40;;;;;;5052001;28;20201;-57
2022/07/14 12:55:32;;;;;;;8.38;1.70;;;36.90;40.20;;;;;;5051723;28;20744;-56
2022/07/14 12:58:03;;;;;;;11.07;1.92;;;37.00;39.00;;;;;;5051649;28;20236;-56
2022/07/14 13:00:32;;;;;;;12.50;1.70;;;37.00;39.20;;;;;;5051313;28;20225;-56
2022/07/14 13:03:19;;;;;;;6.80;1.70;;;36.90;39.30;;;;;;5052533;28;20209;-56
2022/07/14 13:05:48;;;;;;;8.15;1.85;;;36.90;39.70;;;;;;5055744;28;20233;-56